sensor_id;sensor_type;location;lat;lon;timestamp;P1;durP1;ratioP1;P2;durP2;ratioP2
66609;SDS011;53468;48.276;14.416;2024-02-23T00:00:48;8.20;;;5.68;;
66609;SDS011;53468;48.276;14.416;2024-02-23T00:05:50;8.32;;;4.70;;
66609;SDS011;53468;48.276;14.416;2024-02-23T00:10:52;9.30;;;5.38;;
66609;SDS011;53468;48.276;14.416;2024-02-23T00:15:56;9.13;;;4.85;;
66609;SDS011;53468;48.276;14.416;2024-02-23T00:26:09;9.88;;;4.93;;
66609;SDS011;53468;48.276;14.416;2024-02-23T00:31:12;6.63;;;4.35;;
66609;SDS011;53468;48.276;14.416;2024-02-23T00:36:14;7.82;;;5.25;;
66609;SDS011;53468;48.276;14.416;2024-02-23T00:41:16;6.85;;;4.38;;
66609;SDS011;53468;48.276;14.416;2024-02-23T00:46:20;18.27;;;9.35;;
66609;SDS011;53468;48.276;14.416;2024-02-23T00:51:22;14.35;;;8.43;;
66609;SDS011;53468;48.276;14.416;2024-02-23T00:56:25;11.63;;;8.20;;
66609;SDS011;53468;48.276;14.416;2024-02-23T01:01:29;9.30;;;6.05;;
66609;SDS011;53468;48.276;14.416;2024-02-23T01:06:32;9.38;;;6.40;;
66609;SDS011;53468;48.276;14.416;2024-02-23T01:11:34;11.77;;;6.75;;
66609;SDS011;53468;48.276;14.416;2024-02-23T01:16:38;15.65;;;9.88;;
66609;SDS011;53468;48.276;14.416;2024-02-23T01:21:40;12.68;;;8.20;;
66609;SDS011;53468;48.276;14.416;2024-02-23T01:26:42;17.75;;;8.60;;
66609;SDS011;53468;48.276;14.416;2024-02-23T01:31:46;14.02;;;9.43;;
66609;SDS011;53468;48.276;14.416;2024-02-23T01:36:48;14.80;;;9.95;;
66609;SDS011;53468;48.276;14.416;2024-02-23T01:41:50;14.93;;;9.57;;
66609;SDS011;53468;48.276;14.416;2024-02-23T01:46:56;20.08;;;11.02;;
66609;SDS011;53468;48.276;14.416;2024-02-23T01:51:59;18.95;;;11.02;;
66609;SDS011;53468;48.276;14.416;2024-02-23T01:57:03;21.10;;;12.55;;
66609;SDS011;53468;48.276;14.416;2024-02-23T02:02:06;24.77;;;13.57;;
66609;SDS011;53468;48.276;14.416;2024-02-23T02:07:09;20.63;;;11.35;;
66609;SDS011;53468;48.276;14.416;2024-02-23T02:12:11;17.35;;;9.48;;
66609;SDS011;53468;48.276;14.416;2024-02-23T02:17:15;14.57;;;8.45;;
66609;SDS011;53468;48.276;14.416;2024-02-23T02:22:18;12.55;;;6.72;;
66609;SDS011;53468;48.276;14.416;2024-02-23T02:27:20;8.27;;;5.43;;
66609;SDS011;53468;48.276;14.416;2024-02-23T02:32:23;7.53;;;4.93;;
66609;SDS011;53468;48.276;14.416;2024-02-23T02:37:26;7.90;;;4.80;;
66609;SDS011;53468;48.276;14.416;2024-02-23T02:42:28;12.68;;;6.53;;
66609;SDS011;53468;48.276;14.416;2024-02-23T02:47:31;11.75;;;7.25;;
66609;SDS011;53468;48.276;14.416;2024-02-23T02:52:33;23.20;;;9.25;;
66609;SDS011;53468;48.276;14.416;2024-02-23T02:57:36;10.02;;;7.00;;
66609;SDS011;53468;48.276;14.416;2024-02-23T03:02:40;12.00;;;7.18;;
66609;SDS011;53468;48.276;14.416;2024-02-23T03:07:42;11.00;;;7.45;;
66609;SDS011;53468;48.276;14.416;2024-02-23T03:12:44;11.35;;;7.35;;
66609;SDS011;53468;48.276;14.416;2024-02-23T03:17:48;11.38;;;6.47;;
66609;SDS011;53468;48.276;14.416;2024-02-23T03:22:50;8.35;;;6.10;;
66609;SDS011;53468;48.276;14.416;2024-02-23T03:27:53;8.10;;;5.10;;
66609;SDS011;53468;48.276;14.416;2024-02-23T03:32:57;7.43;;;4.85;;
66609;SDS011;53468;48.276;14.416;2024-02-23T03:37:59;9.15;;;4.78;;
66609;SDS011;53468;48.276;14.416;2024-02-23T03:43:02;9.10;;;5.30;;
66609;SDS011;53468;48.276;14.416;2024-02-23T03:48:07;9.52;;;5.35;;
66609;SDS011;53468;48.276;14.416;2024-02-23T03:53:09;8.43;;;5.43;;
66609;SDS011;53468;48.276;14.416;2024-02-23T03:58:12;8.70;;;5.03;;
66609;SDS011;53468;48.276;14.416;2024-02-23T04:03:16;6.82;;;4.47;;
66609;SDS011;53468;48.276;14.416;2024-02-23T04:08:18;7.68;;;4.35;;
66609;SDS011;53468;48.276;14.416;2024-02-23T04:13:20;14.00;;;3.80;;
66609;SDS011;53468;48.276;14.416;2024-02-23T04:18:24;5.90;;;2.90;;
66609;SDS011;53468;48.276;14.416;2024-02-23T04:23:27;6.03;;;3.03;;
66609;SDS011;53468;48.276;14.416;2024-02-23T04:28:29;4.55;;;2.85;;
66609;SDS011;53468;48.276;14.416;2024-02-23T04:33:35;5.28;;;3.60;;
66609;SDS011;53468;48.276;14.416;2024-02-23T04:38:37;6.03;;;3.75;;
66609;SDS011;53468;48.276;14.416;2024-02-23T04:43:39;5.00;;;3.40;;
66609;SDS011;53468;48.276;14.416;2024-02-23T04:48:43;5.10;;;3.63;;
66609;SDS011;53468;48.276;14.416;2024-02-23T04:53:45;4.55;;;3.33;;
66609;SDS011;53468;48.276;14.416;2024-02-23T04:58:47;5.38;;;3.40;;
66609;SDS011;53468;48.276;14.416;2024-02-23T05:03:51;5.28;;;2.83;;
66609;SDS011;53468;48.276;14.416;2024-02-23T05:08:53;3.58;;;1.10;;
66609;SDS011;53468;48.276;14.416;2024-02-23T05:13:56;3.10;;;0.80;;
66609;SDS011;53468;48.276;14.416;2024-02-23T05:18:59;0.90;;;0.40;;
66609;SDS011;53468;48.276;14.416;2024-02-23T05:24:03;0.57;;;0.32;;
66609;SDS011;53468;48.276;14.416;2024-02-23T05:29:06;0.90;;;0.47;;
66609;SDS011;53468;48.276;14.416;2024-02-23T05:34:10;0.70;;;0.40;;
66609;SDS011;53468;48.276;14.416;2024-02-23T05:39:12;1.05;;;0.30;;
66609;SDS011;53468;48.276;14.416;2024-02-23T05:44:16;0.85;;;0.20;;
66609;SDS011;53468;48.276;14.416;2024-02-23T05:49:19;0.82;;;0.30;;
66609;SDS011;53468;48.276;14.416;2024-02-23T05:54:22;0.47;;;0.20;;
66609;SDS011;53468;48.276;14.416;2024-02-23T05:59:24;0.65;;;0.40;;
66609;SDS011;53468;48.276;14.416;2024-02-23T06:04:29;1.10;;;0.22;;
66609;SDS011;53468;48.276;14.416;2024-02-23T06:09:31;1.23;;;0.60;;
66609;SDS011;53468;48.276;14.416;2024-02-23T06:14:33;0.40;;;0.25;;
66609;SDS011;53468;48.276;14.416;2024-02-23T06:19:37;0.63;;;0.20;;
66609;SDS011;53468;48.276;14.416;2024-02-23T06:24:39;0.75;;;0.30;;
66609;SDS011;53468;48.276;14.416;2024-02-23T06:29:41;0.75;;;0.30;;
66609;SDS011;53468;48.276;14.416;2024-02-23T06:34:45;0.85;;;0.32;;
66609;SDS011;53468;48.276;14.416;2024-02-23T06:39:47;1.38;;;0.30;;
66609;SDS011;53468;48.276;14.416;2024-02-23T06:44:54;0.73;;;0.40;;
66609;SDS011;53468;48.276;14.416;2024-02-23T06:49:58;1.33;;;0.50;;
66609;SDS011;53468;48.276;14.416;2024-02-23T06:55:00;1.10;;;0.60;;
66609;SDS011;53468;48.276;14.416;2024-02-23T07:00:03;1.95;;;0.88;;
66609;SDS011;53468;48.276;14.416;2024-02-23T07:05:09;3.85;;;1.52;;
66609;SDS011;53468;48.276;14.416;2024-02-23T07:15:14;3.80;;;2.10;;
66609;SDS011;53468;48.276;14.416;2024-02-23T07:20:17;2.55;;;1.40;;
66609;SDS011;53468;48.276;14.416;2024-02-23T07:25:20;4.30;;;2.03;;
66609;SDS011;53468;48.276;14.416;2024-02-23T07:30:22;3.88;;;1.77;;
66609;SDS011;53468;48.276;14.416;2024-02-23T07:35:25;7.18;;;2.65;;
66609;SDS011;53468;48.276;14.416;2024-02-23T07:40:28;4.65;;;1.40;;
66609;SDS011;53468;48.276;14.416;2024-02-23T07:45:32;7.35;;;1.85;;
66609;SDS011;53468;48.276;14.416;2024-02-23T07:50:36;3.70;;;1.25;;
66609;SDS011;53468;48.276;14.416;2024-02-23T07:55:38;2.72;;;0.82;;
66609;SDS011;53468;48.276;14.416;2024-02-23T08:00:40;4.30;;;1.27;;
66609;SDS011;53468;48.276;14.416;2024-02-23T08:05:44;4.68;;;1.10;;
66609;SDS011;53468;48.276;14.416;2024-02-23T08:10:46;2.60;;;1.45;;
66609;SDS011;53468;48.276;14.416;2024-02-23T08:15:49;5.05;;;1.77;;
66609;SDS011;53468;48.276;14.416;2024-02-23T08:20:52;5.05;;;2.20;;
66609;SDS011;53468;48.276;14.416;2024-02-23T08:25:54;4.25;;;1.80;;
66609;SDS011;53468;48.276;14.416;2024-02-23T08:30:58;2.58;;;1.27;;
66609;SDS011;53468;48.276;14.416;2024-02-23T08:36:01;4.75;;;1.38;;
66609;SDS011;53468;48.276;14.416;2024-02-23T08:41:05;5.43;;;1.52;;
66609;SDS011;53468;48.276;14.416;2024-02-23T08:46:08;2.75;;;1.08;;
66609;SDS011;53468;48.276;14.416;2024-02-23T08:51:11;1.40;;;0.65;;
66609;SDS011;53468;48.276;14.416;2024-02-23T08:56:14;4.32;;;1.17;;
66609;SDS011;53468;48.276;14.416;2024-02-23T09:01:16;3.10;;;0.93;;
66609;SDS011;53468;48.276;14.416;2024-02-23T09:06:19;2.83;;;1.35;;
66609;SDS011;53468;48.276;14.416;2024-02-23T09:11:22;4.22;;;1.30;;
66609;SDS011;53468;48.276;14.416;2024-02-23T09:16:24;5.40;;;2.30;;
66609;SDS011;53468;48.276;14.416;2024-02-23T09:21:27;5.05;;;2.20;;
66609;SDS011;53468;48.276;14.416;2024-02-23T09:26:29;3.65;;;1.55;;
66609;SDS011;53468;48.276;14.416;2024-02-23T09:31:32;1.33;;;0.60;;
66609;SDS011;53468;48.276;14.416;2024-02-23T09:36:35;0.77;;;0.28;;
66609;SDS011;53468;48.276;14.416;2024-02-23T09:41:37;0.73;;;0.30;;
66609;SDS011;53468;48.276;14.416;2024-02-23T09:46:41;0.88;;;0.43;;
66609;SDS011;53468;48.276;14.416;2024-02-23T09:51:46;0.55;;;0.25;;
66609;SDS011;53468;48.276;14.416;2024-02-23T09:56:49;2.45;;;0.47;;
66609;SDS011;53468;48.276;14.416;2024-02-23T10:01:52;0.93;;;0.40;;
66609;SDS011;53468;48.276;14.416;2024-02-23T10:06:56;1.02;;;0.40;;
66609;SDS011;53468;48.276;14.416;2024-02-23T10:11:58;1.15;;;0.40;;
66609;SDS011;53468;48.276;14.416;2024-02-23T10:17:00;1.80;;;0.43;;
66609;SDS011;53468;48.276;14.416;2024-02-23T10:22:04;1.02;;;0.30;;
66609;SDS011;53468;48.276;14.416;2024-02-23T10:27:06;0.73;;;0.38;;
66609;SDS011;53468;48.276;14.416;2024-02-23T10:32:08;0.93;;;0.40;;
66609;SDS011;53468;48.276;14.416;2024-02-23T10:37:17;1.05;;;0.50;;
66609;SDS011;53468;48.276;14.416;2024-02-23T10:42:19;1.92;;;0.57;;
66609;SDS011;53468;48.276;14.416;2024-02-23T10:47:25;1.92;;;0.60;;
66609;SDS011;53468;48.276;14.416;2024-02-23T10:52:29;2.13;;;0.40;;
66609;SDS011;53468;48.276;14.416;2024-02-23T10:57:32;0.80;;;0.50;;
66609;SDS011;53468;48.276;14.416;2024-02-23T11:02:36;1.08;;;0.35;;
66609;SDS011;53468;48.276;14.416;2024-02-23T11:07:43;0.98;;;0.35;;
66609;SDS011;53468;48.276;14.416;2024-02-23T11:12:49;1.48;;;0.47;;
66609;SDS011;53468;48.276;14.416;2024-02-23T11:17:59;1.65;;;0.50;;
66609;SDS011;53468;48.276;14.416;2024-02-23T11:23:12;1.67;;;0.38;;
66609;SDS011;53468;48.276;14.416;2024-02-23T11:28:21;1.75;;;0.30;;
66609;SDS011;53468;48.276;14.416;2024-02-23T11:33:27;1.00;;;0.40;;
66609;SDS011;53468;48.276;14.416;2024-02-23T11:38:30;0.20;;;0.20;;
66609;SDS011;53468;48.276;14.416;2024-02-23T11:43:33;0.77;;;0.30;;
66609;SDS011;53468;48.276;14.416;2024-02-23T11:48:36;1.42;;;0.50;;
66609;SDS011;53468;48.276;14.416;2024-02-23T11:53:39;0.80;;;0.43;;
66609;SDS011;53468;48.276;14.416;2024-02-23T11:58:42;0.77;;;0.30;;
66609;SDS011;53468;48.276;14.416;2024-02-23T12:03:44;0.40;;;0.30;;
66609;SDS011;53468;48.276;14.416;2024-02-23T12:08:47;1.00;;;0.47;;
66609;SDS011;53468;48.276;14.416;2024-02-23T12:13:50;0.95;;;0.50;;
66609;SDS011;53468;48.276;14.416;2024-02-23T12:18:52;0.70;;;0.40;;
66609;SDS011;53468;48.276;14.416;2024-02-23T12:23:57;1.23;;;0.93;;
66609;SDS011;53468;48.276;14.416;2024-02-23T12:29:00;2.60;;;0.93;;
66609;SDS011;53468;48.276;14.416;2024-02-23T12:34:02;2.17;;;0.70;;
66609;SDS011;53468;48.276;14.416;2024-02-23T12:39:06;1.60;;;0.70;;
66609;SDS011;53468;48.276;14.416;2024-02-23T12:44:08;2.15;;;0.90;;
66609;SDS011;53468;48.276;14.416;2024-02-23T12:49:10;2.33;;;0.95;;
66609;SDS011;53468;48.276;14.416;2024-02-23T12:54:14;1.92;;;0.50;;
66609;SDS011;53468;48.276;14.416;2024-02-23T12:59:16;1.63;;;0.60;;
66609;SDS011;53468;48.276;14.416;2024-02-23T13:04:18;1.15;;;0.82;;
66609;SDS011;53468;48.276;14.416;2024-02-23T13:09:22;1.88;;;0.60;;
66609;SDS011;53468;48.276;14.416;2024-02-23T13:14:24;1.55;;;0.93;;
66609;SDS011;53468;48.276;14.416;2024-02-23T13:19:26;4.65;;;1.13;;
66609;SDS011;53468;48.276;14.416;2024-02-23T13:24:29;5.40;;;1.77;;
66609;SDS011;53468;48.276;14.416;2024-02-23T13:29:31;4.78;;;1.60;;
66609;SDS011;53468;48.276;14.416;2024-02-23T13:34:33;4.47;;;1.27;;
66609;SDS011;53468;48.276;14.416;2024-02-23T13:39:37;3.58;;;1.13;;
66609;SDS011;53468;48.276;14.416;2024-02-23T13:44:39;3.85;;;1.48;;
66609;SDS011;53468;48.276;14.416;2024-02-23T13:49:41;5.38;;;1.48;;
66609;SDS011;53468;48.276;14.416;2024-02-23T13:54:44;3.15;;;1.02;;
66609;SDS011;53468;48.276;14.416;2024-02-23T13:59:46;1.65;;;0.90;;
66609;SDS011;53468;48.276;14.416;2024-02-23T14:04:49;2.28;;;0.95;;
66609;SDS011;53468;48.276;14.416;2024-02-23T14:09:52;1.83;;;0.63;;
66609;SDS011;53468;48.276;14.416;2024-02-23T14:14:54;3.30;;;1.27;;
66609;SDS011;53468;48.276;14.416;2024-02-23T14:19:56;2.15;;;0.90;;
66609;SDS011;53468;48.276;14.416;2024-02-23T14:25:00;2.08;;;0.50;;
66609;SDS011;53468;48.276;14.416;2024-02-23T14:30:02;1.73;;;1.10;;
66609;SDS011;53468;48.276;14.416;2024-02-23T14:35:05;1.48;;;0.80;;
66609;SDS011;53468;48.276;14.416;2024-02-23T14:40:09;4.68;;;1.33;;
66609;SDS011;53468;48.276;14.416;2024-02-23T14:45:14;2.40;;;1.30;;
66609;SDS011;53468;48.276;14.416;2024-02-23T14:50:16;5.00;;;1.90;;
66609;SDS011;53468;48.276;14.416;2024-02-23T14:55:20;5.75;;;2.35;;
66609;SDS011;53468;48.276;14.416;2024-02-23T15:00:22;2.03;;;1.10;;
66609;SDS011;53468;48.276;14.416;2024-02-23T15:05:24;1.63;;;0.88;;
66609;SDS011;53468;48.276;14.416;2024-02-23T15:10:27;2.30;;;1.17;;
66609;SDS011;53468;48.276;14.416;2024-02-23T15:15:29;2.83;;;1.35;;
66609;SDS011;53468;48.276;14.416;2024-02-23T15:25:43;4.60;;;2.00;;
66609;SDS011;53468;48.276;14.416;2024-02-23T15:30:45;4.30;;;2.33;;
66609;SDS011;53468;48.276;14.416;2024-02-23T15:35:47;2.67;;;1.38;;
66609;SDS011;53468;48.276;14.416;2024-02-23T15:40:51;1.75;;;0.90;;
66609;SDS011;53468;48.276;14.416;2024-02-23T15:45:53;3.03;;;1.30;;
66609;SDS011;53468;48.276;14.416;2024-02-23T15:50:55;2.30;;;1.17;;
66609;SDS011;53468;48.276;14.416;2024-02-23T15:55:59;2.28;;;1.58;;
66609;SDS011;53468;48.276;14.416;2024-02-23T16:01:01;3.60;;;2.17;;
66609;SDS011;53468;48.276;14.416;2024-02-23T16:06:03;5.53;;;2.92;;
66609;SDS011;53468;48.276;14.416;2024-02-23T16:11:07;3.72;;;1.77;;
66609;SDS011;53468;48.276;14.416;2024-02-23T16:16:10;4.50;;;2.33;;
66609;SDS011;53468;48.276;14.416;2024-02-23T16:26:26;9.50;;;3.97;;
66609;SDS011;53468;48.276;14.416;2024-02-23T16:31:28;5.65;;;3.38;;
66609;SDS011;53468;48.276;14.416;2024-02-23T16:36:30;7.13;;;1.92;;
66609;SDS011;53468;48.276;14.416;2024-02-23T16:41:34;5.20;;;1.70;;
66609;SDS011;53468;48.276;14.416;2024-02-23T16:46:36;6.38;;;2.80;;
66609;SDS011;53468;48.276;14.416;2024-02-23T16:56:43;4.43;;;1.73;;
66609;SDS011;53468;48.276;14.416;2024-02-23T17:01:45;6.25;;;3.30;;
66609;SDS011;53468;48.276;14.416;2024-02-23T17:06:47;4.13;;;2.08;;
66609;SDS011;53468;48.276;14.416;2024-02-23T17:16:52;3.05;;;1.67;;
66609;SDS011;53468;48.276;14.416;2024-02-23T17:21:54;4.68;;;2.38;;
66609;SDS011;53468;48.276;14.416;2024-02-23T17:26:58;7.53;;;2.83;;
66609;SDS011;53468;48.276;14.416;2024-02-23T17:37:10;2.85;;;1.67;;
66609;SDS011;53468;48.276;14.416;2024-02-23T17:42:14;3.65;;;1.98;;
66609;SDS011;53468;48.276;14.416;2024-02-23T17:47:16;5.50;;;2.50;;
66609;SDS011;53468;48.276;14.416;2024-02-23T17:52:18;3.38;;;1.98;;
66609;SDS011;53468;48.276;14.416;2024-02-23T17:57:21;2.42;;;1.52;;
66609;SDS011;53468;48.276;14.416;2024-02-23T18:02:24;3.10;;;1.80;;
66609;SDS011;53468;48.276;14.416;2024-02-23T18:07:26;3.53;;;1.95;;
66609;SDS011;53468;48.276;14.416;2024-02-23T18:12:31;2.63;;;1.60;;
66609;SDS011;53468;48.276;14.416;2024-02-23T18:17:33;6.10;;;3.28;;
66609;SDS011;53468;48.276;14.416;2024-02-23T18:22:35;4.15;;;2.50;;
66609;SDS011;53468;48.276;14.416;2024-02-23T18:27:38;5.53;;;3.03;;
66609;SDS011;53468;48.276;14.416;2024-02-23T18:32:41;3.72;;;2.35;;
66609;SDS011;53468;48.276;14.416;2024-02-23T18:37:43;4.35;;;2.75;;
66609;SDS011;53468;48.276;14.416;2024-02-23T18:42:46;4.00;;;2.50;;
66609;SDS011;53468;48.276;14.416;2024-02-23T18:47:48;6.43;;;3.15;;
66609;SDS011;53468;48.276;14.416;2024-02-23T18:52:50;3.88;;;2.40;;
66609;SDS011;53468;48.276;14.416;2024-02-23T18:57:54;4.85;;;3.03;;
66609;SDS011;53468;48.276;14.416;2024-02-23T19:02:56;4.38;;;2.88;;
66609;SDS011;53468;48.276;14.416;2024-02-23T19:07:58;6.60;;;3.47;;
66609;SDS011;53468;48.276;14.416;2024-02-23T19:13:02;5.53;;;3.70;;
66609;SDS011;53468;48.276;14.416;2024-02-23T19:18:04;5.80;;;3.28;;
66609;SDS011;53468;48.276;14.416;2024-02-23T19:23:06;4.07;;;2.90;;
66609;SDS011;53468;48.276;14.416;2024-02-23T19:28:10;4.97;;;2.53;;
66609;SDS011;53468;48.276;14.416;2024-02-23T19:33:12;4.70;;;2.47;;
66609;SDS011;53468;48.276;14.416;2024-02-23T19:38:14;4.72;;;2.67;;
66609;SDS011;53468;48.276;14.416;2024-02-23T19:43:17;3.72;;;2.30;;
66609;SDS011;53468;48.276;14.416;2024-02-23T19:48:20;4.00;;;2.60;;
66609;SDS011;53468;48.276;14.416;2024-02-23T19:53:22;3.67;;;2.60;;
66609;SDS011;53468;48.276;14.416;2024-02-23T19:58:25;5.57;;;3.85;;
66609;SDS011;53468;48.276;14.416;2024-02-23T20:03:27;6.28;;;2.70;;
66609;SDS011;53468;48.276;14.416;2024-02-23T20:08:29;4.88;;;3.05;;
66609;SDS011;53468;48.276;14.416;2024-02-23T20:13:33;3.95;;;2.53;;
66609;SDS011;53468;48.276;14.416;2024-02-23T20:18:36;5.93;;;3.53;;
66609;SDS011;53468;48.276;14.416;2024-02-23T20:23:44;5.18;;;3.15;;
66609;SDS011;53468;48.276;14.416;2024-02-23T20:28:48;5.38;;;3.20;;
66609;SDS011;53468;48.276;14.416;2024-02-23T20:33:50;4.68;;;2.97;;
66609;SDS011;53468;48.276;14.416;2024-02-23T20:38:52;5.65;;;3.33;;
66609;SDS011;53468;48.276;14.416;2024-02-23T20:43:55;6.03;;;3.90;;
66609;SDS011;53468;48.276;14.416;2024-02-23T20:49:00;5.22;;;3.40;;
66609;SDS011;53468;48.276;14.416;2024-02-23T20:54:02;6.28;;;4.13;;
66609;SDS011;53468;48.276;14.416;2024-02-23T20:59:08;9.88;;;5.90;;
66609;SDS011;53468;48.276;14.416;2024-02-23T21:04:10;9.15;;;4.95;;
66609;SDS011;53468;48.276;14.416;2024-02-23T21:09:12;8.35;;;5.80;;
66609;SDS011;53468;48.276;14.416;2024-02-23T21:14:17;10.02;;;6.20;;
66609;SDS011;53468;48.276;14.416;2024-02-23T21:19:19;9.45;;;5.88;;
66609;SDS011;53468;48.276;14.416;2024-02-23T21:24:21;8.68;;;5.80;;
66609;SDS011;53468;48.276;14.416;2024-02-23T21:29:25;11.40;;;6.05;;
66609;SDS011;53468;48.276;14.416;2024-02-23T21:34:27;10.70;;;7.40;;
66609;SDS011;53468;48.276;14.416;2024-02-23T21:39:29;12.80;;;6.60;;
66609;SDS011;53468;48.276;14.416;2024-02-23T21:44:32;10.45;;;6.85;;
66609;SDS011;53468;48.276;14.416;2024-02-23T21:49:35;16.25;;;8.25;;
66609;SDS011;53468;48.276;14.416;2024-02-23T21:54:37;10.70;;;6.63;;
66609;SDS011;53468;48.276;14.416;2024-02-23T21:59:44;11.40;;;7.20;;
66609;SDS011;53468;48.276;14.416;2024-02-23T22:04:46;13.40;;;7.22;;
66609;SDS011;53468;48.276;14.416;2024-02-23T22:09:48;13.30;;;8.55;;
66609;SDS011;53468;48.276;14.416;2024-02-23T22:14:57;16.20;;;10.00;;
66609;SDS011;53468;48.276;14.416;2024-02-23T22:19:59;14.80;;;8.63;;
66609;SDS011;53468;48.276;14.416;2024-02-23T22:25:01;12.70;;;7.75;;
66609;SDS011;53468;48.276;14.416;2024-02-23T22:30:05;12.20;;;7.25;;
66609;SDS011;53468;48.276;14.416;2024-02-23T22:35:08;15.13;;;9.40;;
66609;SDS011;53468;48.276;14.416;2024-02-23T22:40:13;13.07;;;8.13;;
66609;SDS011;53468;48.276;14.416;2024-02-23T22:45:16;13.18;;;8.32;;
66609;SDS011;53468;48.276;14.416;2024-02-23T22:50:18;23.63;;;12.10;;
66609;SDS011;53468;48.276;14.416;2024-02-23T22:55:22;17.48;;;10.68;;
66609;SDS011;53468;48.276;14.416;2024-02-23T23:00:25;17.50;;;10.02;;
66609;SDS011;53468;48.276;14.416;2024-02-23T23:05:27;18.10;;;9.40;;
66609;SDS011;53468;48.276;14.416;2024-02-23T23:10:29;13.07;;;8.10;;
66609;SDS011;53468;48.276;14.416;2024-02-23T23:15:32;15.15;;;9.13;;
66609;SDS011;53468;48.276;14.416;2024-02-23T23:20:34;12.75;;;7.57;;
66609;SDS011;53468;48.276;14.416;2024-02-23T23:25:36;9.70;;;6.00;;
66609;SDS011;53468;48.276;14.416;2024-02-23T23:30:40;11.85;;;7.45;;
66609;SDS011;53468;48.276;14.416;2024-02-23T23:35:42;11.52;;;7.03;;
66609;SDS011;53468;48.276;14.416;2024-02-23T23:40:44;11.52;;;6.90;;
66609;SDS011;53468;48.276;14.416;2024-02-23T23:45:47;11.27;;;7.35;;
66609;SDS011;53468;48.276;14.416;2024-02-23T23:50:49;11.90;;;7.55;;
66609;SDS011;53468;48.276;14.416;2024-02-23T23:55:52;10.32;;;6.65;;
